LUKK Airport Information

Runway Information
Runway 08 Length 11779 ft width 145 ft
Elevation 399 ft Threshold 0 ft Heading 88
Runway 26 Length 11779 ft Width 145 ft
Elevation 279 ft Threshold 0 ft Heading 268
Airport Frequencies
Type APP Name APP Frequency 125.9 MHZ
Type ATIS Name ATIS Frequency 133.7 MHZ
Type GND Name GND Frequency 121.8 MHZ
Type TWR Name TWR Frequency 118.1 MHZ
Airport Navaids
Type VOR-DME Name Chisinau Frequency 113700 KHZ
Airport Weather Information & NOTAM
ADDS - METARS form results

(0603 UTC 21 July 2018)
 
METAR text: LUKK 210600Z 33009KT 9999 FEW019 23/19 Q1009 R26/CLRD// NOSIG
Conditions at: LUKK (CHISINAU INTL , MD) observed 0600 UTC 21 July 2018
Temperature: 23.0°C (73°F)
Dewpoint: 19.0°C (66°F) [RH = 78%]
Pressure (altimeter): 29.79 inches Hg (1009.0 mb)
Winds: from the NNW (330 degrees) at 10 MPH (9 knots; 4.7 m/s)
Visibility: 6 or more miles (10+ km)
Ceiling: at least 12,000 feet AGL
Clouds: few clouds at 1900 feet AGL
Weather: no significant weather observed at this time

METAR text: LUKK 210530Z 32008KT 290V350 9999 FEW019 23/19 Q1009 R26/D NOSIG
Conditions at: LUKK (CHISINAU INTL , MD) observed 0530 UTC 21 July 2018
Temperature: 23.0°C (73°F)
Dewpoint: 19.0°C (66°F) [RH = 78%]
Pressure (altimeter): 29.79 inches Hg (1009.0 mb)
Winds: from the NW (320 degrees) at 9 MPH (8 knots; 4.2 m/s)
Visibility: 6 or more miles (10+ km)
Ceiling: at least 12,000 feet AGL
Clouds: few clouds at 1900 feet AGL
Weather: no significant weather observed at this time